sensor_id;sensor_type;location;lat;lon;timestamp;P1;durP1;ratioP1;P2;durP2;ratioP2
27728;SDS011;15126;42.186;24.340;2022-07-29T00:00:07;7.67;;;6.30;;
27728;SDS011;15126;42.186;24.340;2022-07-29T00:02:35;7.37;;;5.80;;
27728;SDS011;15126;42.186;24.340;2022-07-29T00:05:02;11.40;;;6.27;;
27728;SDS011;15126;42.186;24.340;2022-07-29T00:07:30;7.67;;;6.97;;
27728;SDS011;15126;42.186;24.340;2022-07-29T00:09:57;6.37;;;5.73;;
27728;SDS011;15126;42.186;24.340;2022-07-29T00:12:25;6.80;;;6.10;;
27728;SDS011;15126;42.186;24.340;2022-07-29T00:14:52;11.70;;;6.50;;
27728;SDS011;15126;42.186;24.340;2022-07-29T00:17:20;8.00;;;5.90;;
27728;SDS011;15126;42.186;24.340;2022-07-29T00:19:47;6.10;;;5.50;;
27728;SDS011;15126;42.186;24.340;2022-07-29T00:22:14;7.07;;;6.17;;
27728;SDS011;15126;42.186;24.340;2022-07-29T00:24:41;7.23;;;6.13;;
27728;SDS011;15126;42.186;24.340;2022-07-29T00:27:08;6.10;;;5.50;;
27728;SDS011;15126;42.186;24.340;2022-07-29T00:29:36;6.90;;;5.77;;
27728;SDS011;15126;42.186;24.340;2022-07-29T00:32:03;5.90;;;5.17;;
27728;SDS011;15126;42.186;24.340;2022-07-29T00:34:30;15.80;;;5.60;;
27728;SDS011;15126;42.186;24.340;2022-07-29T00:37:14;5.47;;;4.97;;
27728;SDS011;15126;42.186;24.340;2022-07-29T00:39:41;4.67;;;4.27;;
27728;SDS011;15126;42.186;24.340;2022-07-29T00:42:08;5.60;;;5.03;;
27728;SDS011;15126;42.186;24.340;2022-07-29T00:44:37;5.57;;;5.17;;
27728;SDS011;15126;42.186;24.340;2022-07-29T00:47:05;7.47;;;4.77;;
27728;SDS011;15126;42.186;24.340;2022-07-29T00:49:32;5.77;;;4.67;;
27728;SDS011;15126;42.186;24.340;2022-07-29T00:52:00;5.40;;;4.90;;
27728;SDS011;15126;42.186;24.340;2022-07-29T00:54:27;6.90;;;5.17;;
27728;SDS011;15126;42.186;24.340;2022-07-29T00:56:54;6.20;;;4.90;;
27728;SDS011;15126;42.186;24.340;2022-07-29T00:59:22;5.77;;;5.07;;
27728;SDS011;15126;42.186;24.340;2022-07-29T01:01:51;5.83;;;5.30;;
27728;SDS011;15126;42.186;24.340;2022-07-29T01:04:17;6.43;;;5.23;;
27728;SDS011;15126;42.186;24.340;2022-07-29T01:06:44;6.00;;;5.27;;
27728;SDS011;15126;42.186;24.340;2022-07-29T01:09:11;6.40;;;5.43;;
27728;SDS011;15126;42.186;24.340;2022-07-29T01:11:39;5.60;;;4.90;;
27728;SDS011;15126;42.186;24.340;2022-07-29T01:14:08;7.53;;;4.93;;
27728;SDS011;15126;42.186;24.340;2022-07-29T01:16:37;6.13;;;4.97;;
27728;SDS011;15126;42.186;24.340;2022-07-29T01:19:17;5.93;;;5.27;;
27728;SDS011;15126;42.186;24.340;2022-07-29T01:22:00;5.53;;;4.60;;
27728;SDS011;15126;42.186;24.340;2022-07-29T01:24:39;6.37;;;5.30;;
27728;SDS011;15126;42.186;24.340;2022-07-29T01:27:32;6.13;;;5.43;;
27728;SDS011;15126;42.186;24.340;2022-07-29T01:30:11;5.63;;;5.13;;
27728;SDS011;15126;42.186;24.340;2022-07-29T01:32:38;6.67;;;5.47;;
27728;SDS011;15126;42.186;24.340;2022-07-29T01:35:09;9.67;;;5.57;;
27728;SDS011;15126;42.186;24.340;2022-07-29T01:37:43;6.07;;;5.47;;
27728;SDS011;15126;42.186;24.340;2022-07-29T01:40:14;6.60;;;5.53;;
27728;SDS011;15126;42.186;24.340;2022-07-29T01:42:48;6.00;;;5.37;;
27728;SDS011;15126;42.186;24.340;2022-07-29T01:45:21;6.37;;;5.70;;
27728;SDS011;15126;42.186;24.340;2022-07-29T01:47:54;6.33;;;5.83;;
27728;SDS011;15126;42.186;24.340;2022-07-29T01:50:28;6.97;;;6.30;;
27728;SDS011;15126;42.186;24.340;2022-07-29T01:53:00;6.37;;;5.83;;
27728;SDS011;15126;42.186;24.340;2022-07-29T01:55:31;6.60;;;6.00;;
27728;SDS011;15126;42.186;24.340;2022-07-29T01:58:01;7.03;;;6.13;;
27728;SDS011;15126;42.186;24.340;2022-07-29T02:00:32;7.10;;;6.23;;
27728;SDS011;15126;42.186;24.340;2022-07-29T02:03:00;6.40;;;5.83;;
27728;SDS011;15126;42.186;24.340;2022-07-29T02:05:31;6.73;;;6.17;;
27728;SDS011;15126;42.186;24.340;2022-07-29T02:08:01;11.93;;;8.17;;
27728;SDS011;15126;42.186;24.340;2022-07-29T02:10:30;8.00;;;7.27;;
27728;SDS011;15126;42.186;24.340;2022-07-29T02:12:59;13.27;;;7.57;;
27728;SDS011;15126;42.186;24.340;2022-07-29T02:15:28;9.27;;;7.17;;
27728;SDS011;15126;42.186;24.340;2022-07-29T02:18:00;10.47;;;7.63;;
27728;SDS011;15126;42.186;24.340;2022-07-29T02:20:30;8.07;;;7.33;;
27728;SDS011;15126;42.186;24.340;2022-07-29T02:22:58;8.30;;;7.60;;
27728;SDS011;15126;42.186;24.340;2022-07-29T02:25:26;8.10;;;7.33;;
27728;SDS011;15126;42.186;24.340;2022-07-29T02:27:55;9.07;;;8.03;;
27728;SDS011;15126;42.186;24.340;2022-07-29T02:30:23;10.00;;;8.93;;
27728;SDS011;15126;42.186;24.340;2022-07-29T02:32:53;11.03;;;10.00;;
27728;SDS011;15126;42.186;24.340;2022-07-29T02:35:21;10.63;;;9.53;;
27728;SDS011;15126;42.186;24.340;2022-07-29T02:37:48;10.03;;;9.20;;
27728;SDS011;15126;42.186;24.340;2022-07-29T02:40:30;10.80;;;9.67;;
27728;SDS011;15126;42.186;24.340;2022-07-29T02:42:58;9.77;;;8.90;;
27728;SDS011;15126;42.186;24.340;2022-07-29T02:45:26;10.30;;;9.33;;
27728;SDS011;15126;42.186;24.340;2022-07-29T02:47:56;9.97;;;9.17;;
27728;SDS011;15126;42.186;24.340;2022-07-29T02:50:27;9.73;;;8.83;;
27728;SDS011;15126;42.186;24.340;2022-07-29T02:52:58;9.63;;;8.83;;
27728;SDS011;15126;42.186;24.340;2022-07-29T02:55:32;9.37;;;8.67;;
27728;SDS011;15126;42.186;24.340;2022-07-29T02:58:02;9.23;;;8.43;;
27728;SDS011;15126;42.186;24.340;2022-07-29T03:00:36;8.83;;;8.13;;
27728;SDS011;15126;42.186;24.340;2022-07-29T03:03:07;13.20;;;8.53;;
27728;SDS011;15126;42.186;24.340;2022-07-29T03:05:37;11.57;;;9.27;;
27728;SDS011;15126;42.186;24.340;2022-07-29T03:08:05;10.20;;;9.30;;
27728;SDS011;15126;42.186;24.340;2022-07-29T03:10:34;11.43;;;10.43;;
27728;SDS011;15126;42.186;24.340;2022-07-29T03:13:03;11.13;;;10.13;;
27728;SDS011;15126;42.186;24.340;2022-07-29T03:15:31;11.33;;;10.40;;
27728;SDS011;15126;42.186;24.340;2022-07-29T03:17:59;12.17;;;11.27;;
27728;SDS011;15126;42.186;24.340;2022-07-29T03:20:27;12.57;;;11.10;;
27728;SDS011;15126;42.186;24.340;2022-07-29T03:22:54;12.67;;;11.47;;
27728;SDS011;15126;42.186;24.340;2022-07-29T03:25:21;11.93;;;10.73;;
27728;SDS011;15126;42.186;24.340;2022-07-29T03:27:48;12.17;;;10.73;;
27728;SDS011;15126;42.186;24.340;2022-07-29T03:30:15;11.80;;;10.70;;
27728;SDS011;15126;42.186;24.340;2022-07-29T03:32:42;13.67;;;12.30;;
27728;SDS011;15126;42.186;24.340;2022-07-29T03:35:09;13.13;;;11.33;;
27728;SDS011;15126;42.186;24.340;2022-07-29T03:37:38;11.33;;;10.23;;
27728;SDS011;15126;42.186;24.340;2022-07-29T03:40:05;12.33;;;11.30;;
27728;SDS011;15126;42.186;24.340;2022-07-29T03:42:35;12.50;;;11.30;;
27728;SDS011;15126;42.186;24.340;2022-07-29T03:45:06;13.53;;;12.13;;
27728;SDS011;15126;42.186;24.340;2022-07-29T03:47:35;12.83;;;11.63;;
27728;SDS011;15126;42.186;24.340;2022-07-29T03:50:06;12.43;;;11.33;;
27728;SDS011;15126;42.186;24.340;2022-07-29T03:52:34;12.90;;;11.67;;
27728;SDS011;15126;42.186;24.340;2022-07-29T03:55:03;12.37;;;11.33;;
27728;SDS011;15126;42.186;24.340;2022-07-29T03:57:31;11.87;;;10.77;;
27728;SDS011;15126;42.186;24.340;2022-07-29T03:59:59;13.33;;;10.93;;
27728;SDS011;15126;42.186;24.340;2022-07-29T04:02:27;12.60;;;11.50;;
27728;SDS011;15126;42.186;24.340;2022-07-29T04:04:54;12.30;;;11.30;;
27728;SDS011;15126;42.186;24.340;2022-07-29T04:07:21;12.17;;;11.17;;
27728;SDS011;15126;42.186;24.340;2022-07-29T04:09:48;11.60;;;10.60;;
27728;SDS011;15126;42.186;24.340;2022-07-29T04:12:16;12.40;;;11.20;;
27728;SDS011;15126;42.186;24.340;2022-07-29T04:14:43;11.30;;;10.37;;
27728;SDS011;15126;42.186;24.340;2022-07-29T04:17:09;12.23;;;11.23;;
27728;SDS011;15126;42.186;24.340;2022-07-29T04:19:36;11.63;;;10.53;;
27728;SDS011;15126;42.186;24.340;2022-07-29T04:22:03;11.27;;;10.37;;
27728;SDS011;15126;42.186;24.340;2022-07-29T04:24:30;12.90;;;11.53;;
27728;SDS011;15126;42.186;24.340;2022-07-29T04:26:57;10.40;;;9.60;;
27728;SDS011;15126;42.186;24.340;2022-07-29T04:29:25;10.50;;;9.50;;
27728;SDS011;15126;42.186;24.340;2022-07-29T04:31:52;11.07;;;10.17;;
27728;SDS011;15126;42.186;24.340;2022-07-29T04:34:19;15.03;;;10.57;;
27728;SDS011;15126;42.186;24.340;2022-07-29T04:36:46;10.43;;;9.53;;
27728;SDS011;15126;42.186;24.340;2022-07-29T04:39:12;10.83;;;10.03;;
27728;SDS011;15126;42.186;24.340;2022-07-29T04:41:39;11.30;;;10.40;;
27728;SDS011;15126;42.186;24.340;2022-07-29T04:44:06;10.77;;;9.90;;
27728;SDS011;15126;42.186;24.340;2022-07-29T04:46:35;10.67;;;9.47;;
27728;SDS011;15126;42.186;24.340;2022-07-29T04:49:02;12.17;;;10.17;;
27728;SDS011;15126;42.186;24.340;2022-07-29T04:51:29;11.30;;;10.40;;
27728;SDS011;15126;42.186;24.340;2022-07-29T04:53:56;10.43;;;9.43;;
27728;SDS011;15126;42.186;24.340;2022-07-29T04:56:22;12.20;;;10.10;;
27728;SDS011;15126;42.186;24.340;2022-07-29T04:58:49;10.23;;;9.37;;
27728;SDS011;15126;42.186;24.340;2022-07-29T05:01:16;10.17;;;9.10;;
27728;SDS011;15126;42.186;24.340;2022-07-29T05:03:45;10.30;;;8.97;;
27728;SDS011;15126;42.186;24.340;2022-07-29T05:06:11;10.33;;;9.43;;
27728;SDS011;15126;42.186;24.340;2022-07-29T05:08:38;10.17;;;8.97;;
27728;SDS011;15126;42.186;24.340;2022-07-29T05:11:05;9.70;;;8.80;;
27728;SDS011;15126;42.186;24.340;2022-07-29T05:13:32;9.50;;;8.70;;
27728;SDS011;15126;42.186;24.340;2022-07-29T05:15:59;9.20;;;8.50;;
27728;SDS011;15126;42.186;24.340;2022-07-29T05:18:26;9.97;;;9.03;;
27728;SDS011;15126;42.186;24.340;2022-07-29T05:20:54;10.03;;;9.13;;
27728;SDS011;15126;42.186;24.340;2022-07-29T05:23:21;9.10;;;8.17;;
27728;SDS011;15126;42.186;24.340;2022-07-29T05:25:48;9.17;;;7.93;;
27728;SDS011;15126;42.186;24.340;2022-07-29T05:28:15;9.63;;;7.73;;
27728;SDS011;15126;42.186;24.340;2022-07-29T05:30:42;6.93;;;6.40;;
27728;SDS011;15126;42.186;24.340;2022-07-29T05:33:09;9.50;;;8.67;;
27728;SDS011;15126;42.186;24.340;2022-07-29T05:35:36;9.07;;;8.13;;
27728;SDS011;15126;42.186;24.340;2022-07-29T05:38:05;8.20;;;7.60;;
27728;SDS011;15126;42.186;24.340;2022-07-29T05:40:31;8.00;;;7.20;;
27728;SDS011;15126;42.186;24.340;2022-07-29T05:42:59;8.43;;;7.57;;
27728;SDS011;15126;42.186;24.340;2022-07-29T05:45:26;7.40;;;6.77;;
27728;SDS011;15126;42.186;24.340;2022-07-29T05:47:52;7.43;;;6.83;;
27728;SDS011;15126;42.186;24.340;2022-07-29T05:50:19;9.57;;;6.70;;
27728;SDS011;15126;42.186;24.340;2022-07-29T05:52:46;9.77;;;6.73;;
27728;SDS011;15126;42.186;24.340;2022-07-29T05:55:14;7.70;;;7.10;;
27728;SDS011;15126;42.186;24.340;2022-07-29T05:57:41;6.70;;;6.10;;
27728;SDS011;15126;42.186;24.340;2022-07-29T06:00:10;7.27;;;6.60;;
27728;SDS011;15126;42.186;24.340;2022-07-29T06:02:38;8.68;;;7.78;;
27728;SDS011;15126;42.186;24.340;2022-07-29T06:05:05;7.03;;;6.45;;
27728;SDS011;15126;42.186;24.340;2022-07-29T06:07:32;9.40;;;7.97;;
27728;SDS011;15126;42.186;24.340;2022-07-29T06:09:59;8.25;;;6.57;;
27728;SDS011;15126;42.186;24.340;2022-07-29T06:12:27;6.88;;;6.28;;
27728;SDS011;15126;42.186;24.340;2022-07-29T06:14:54;12.70;;;6.97;;
27728;SDS011;15126;42.186;24.340;2022-07-29T06:17:21;11.27;;;6.65;;
27728;SDS011;15126;42.186;24.340;2022-07-29T06:19:48;7.45;;;6.75;;
27728;SDS011;15126;42.186;24.340;2022-07-29T06:22:15;7.00;;;6.35;;
27728;SDS011;15126;42.186;24.340;2022-07-29T06:24:42;9.00;;;6.68;;
27728;SDS011;15126;42.186;24.340;2022-07-29T06:27:09;8.40;;;7.15;;
27728;SDS011;15126;42.186;24.340;2022-07-29T06:29:37;11.63;;;7.28;;
27728;SDS011;15126;42.186;24.340;2022-07-29T06:32:05;8.25;;;6.57;;
27728;SDS011;15126;42.186;24.340;2022-07-29T06:34:34;9.35;;;6.68;;
27728;SDS011;15126;42.186;24.340;2022-07-29T06:37:05;8.00;;;5.88;;
27728;SDS011;15126;42.186;24.340;2022-07-29T06:39:33;6.55;;;5.95;;
27728;SDS011;15126;42.186;24.340;2022-07-29T06:42:00;9.05;;;6.30;;
27728;SDS011;15126;42.186;24.340;2022-07-29T06:44:27;6.25;;;5.55;;
27728;SDS011;15126;42.186;24.340;2022-07-29T06:46:56;6.88;;;6.25;;
27728;SDS011;15126;42.186;24.340;2022-07-29T06:49:23;10.15;;;6.45;;
27728;SDS011;15126;42.186;24.340;2022-07-29T06:51:51;8.00;;;6.72;;
27728;SDS011;15126;42.186;24.340;2022-07-29T06:54:18;8.60;;;7.45;;
27728;SDS011;15126;42.186;24.340;2022-07-29T06:56:45;7.85;;;7.22;;
27728;SDS011;15126;42.186;24.340;2022-07-29T06:59:12;7.78;;;6.82;;
27728;SDS011;15126;42.186;24.340;2022-07-29T07:01:39;8.13;;;7.43;;
27728;SDS011;15126;42.186;24.340;2022-07-29T07:04:09;8.27;;;7.35;;
27728;SDS011;15126;42.186;24.340;2022-07-29T07:06:37;7.93;;;7.20;;
27728;SDS011;15126;42.186;24.340;2022-07-29T07:09:04;7.53;;;6.82;;
27728;SDS011;15126;42.186;24.340;2022-07-29T07:11:31;8.52;;;7.68;;
27728;SDS011;15126;42.186;24.340;2022-07-29T07:13:58;8.98;;;7.63;;
27728;SDS011;15126;42.186;24.340;2022-07-29T07:16:25;12.25;;;10.25;;
27728;SDS011;15126;42.186;24.340;2022-07-29T07:18:51;10.10;;;8.38;;
27728;SDS011;15126;42.186;24.340;2022-07-29T07:21:19;9.50;;;8.65;;
27728;SDS011;15126;42.186;24.340;2022-07-29T07:23:46;8.20;;;7.53;;
27728;SDS011;15126;42.186;24.340;2022-07-29T07:26:13;8.75;;;7.88;;
27728;SDS011;15126;42.186;24.340;2022-07-29T07:28:40;12.02;;;9.45;;
27728;SDS011;15126;42.186;24.340;2022-07-29T07:31:07;9.40;;;8.63;;
27728;SDS011;15126;42.186;24.340;2022-07-29T07:33:34;9.35;;;8.65;;
27728;SDS011;15126;42.186;24.340;2022-07-29T07:36:01;9.77;;;8.88;;
27728;SDS011;15126;42.186;24.340;2022-07-29T07:38:29;9.25;;;8.38;;
27728;SDS011;15126;42.186;24.340;2022-07-29T07:40:56;8.38;;;7.82;;
27728;SDS011;15126;42.186;24.340;2022-07-29T07:43:23;9.57;;;8.77;;
27728;SDS011;15126;42.186;24.340;2022-07-29T07:45:50;8.40;;;7.90;;
27728;SDS011;15126;42.186;24.340;2022-07-29T07:48:16;9.43;;;8.52;;
27728;SDS011;15126;42.186;24.340;2022-07-29T07:50:43;10.18;;;8.02;;
27728;SDS011;15126;42.186;24.340;2022-07-29T07:53:10;10.50;;;9.48;;
27728;SDS011;15126;42.186;24.340;2022-07-29T07:55:41;8.90;;;8.13;;
27728;SDS011;15126;42.186;24.340;2022-07-29T07:58:08;11.85;;;9.48;;
27728;SDS011;15126;42.186;24.340;2022-07-29T08:00:35;9.45;;;8.50;;
27728;SDS011;15126;42.186;24.340;2022-07-29T08:03:02;10.13;;;8.30;;
27728;SDS011;15126;42.186;24.340;2022-07-29T08:05:29;10.30;;;8.02;;
27728;SDS011;15126;42.186;24.340;2022-07-29T08:07:57;7.80;;;7.25;;
27728;SDS011;15126;42.186;24.340;2022-07-29T08:10:24;8.45;;;7.65;;
27728;SDS011;15126;42.186;24.340;2022-07-29T08:13:09;8.65;;;7.10;;
27728;SDS011;15126;42.186;24.340;2022-07-29T08:15:38;7.50;;;6.90;;
27728;SDS011;15126;42.186;24.340;2022-07-29T08:18:06;7.20;;;6.70;;
27728;SDS011;15126;42.186;24.340;2022-07-29T08:20:33;8.93;;;8.13;;
27728;SDS011;15126;42.186;24.340;2022-07-29T08:23:00;8.00;;;7.28;;
27728;SDS011;15126;42.186;24.340;2022-07-29T08:25:27;9.20;;;8.20;;
27728;SDS011;15126;42.186;24.340;2022-07-29T08:27:55;7.82;;;7.32;;
27728;SDS011;15126;42.186;24.340;2022-07-29T08:30:24;8.15;;;7.45;;
27728;SDS011;15126;42.186;24.340;2022-07-29T08:32:51;8.60;;;7.97;;
27728;SDS011;15126;42.186;24.340;2022-07-29T08:35:18;9.02;;;8.32;;
27728;SDS011;15126;42.186;24.340;2022-07-29T08:37:45;10.07;;;9.25;;
27728;SDS011;15126;42.186;24.340;2022-07-29T08:40:12;9.55;;;8.75;;
27728;SDS011;15126;42.186;24.340;2022-07-29T08:42:39;10.10;;;8.75;;
27728;SDS011;15126;42.186;24.340;2022-07-29T08:45:07;9.32;;;8.40;;
27728;SDS011;15126;42.186;24.340;2022-07-29T08:47:36;8.63;;;7.93;;
27728;SDS011;15126;42.186;24.340;2022-07-29T08:50:06;9.63;;;8.68;;
27728;SDS011;15126;42.186;24.340;2022-07-29T08:52:35;10.90;;;9.27;;
27728;SDS011;15126;42.186;24.340;2022-07-29T08:55:03;8.30;;;7.63;;
27728;SDS011;15126;42.186;24.340;2022-07-29T08:57:31;7.60;;;7.03;;
27728;SDS011;15126;42.186;24.340;2022-07-29T08:59:59;7.82;;;7.07;;
27728;SDS011;15126;42.186;24.340;2022-07-29T09:02:32;8.40;;;7.80;;
27728;SDS011;15126;42.186;24.340;2022-07-29T09:05:05;7.97;;;7.38;;
27728;SDS011;15126;42.186;24.340;2022-07-29T09:07:33;8.55;;;7.43;;
27728;SDS011;15126;42.186;24.340;2022-07-29T09:10:00;8.20;;;7.68;;
27728;SDS011;15126;42.186;24.340;2022-07-29T09:12:28;7.15;;;6.65;;
27728;SDS011;15126;42.186;24.340;2022-07-29T09:14:56;8.30;;;7.50;;
27728;SDS011;15126;42.186;24.340;2022-07-29T09:20:09;8.30;;;7.50;;
27728;SDS011;15126;42.186;24.340;2022-07-29T09:22:37;7.75;;;6.95;;
27728;SDS011;15126;42.186;24.340;2022-07-29T09:25:04;8.02;;;7.13;;
27728;SDS011;15126;42.186;24.340;2022-07-29T09:27:32;9.05;;;6.00;;
27728;SDS011;15126;42.186;24.340;2022-07-29T09:30:00;7.10;;;6.47;;
27728;SDS011;15126;42.186;24.340;2022-07-29T09:32:30;7.00;;;6.28;;
27728;SDS011;15126;42.186;24.340;2022-07-29T09:35:17;7.15;;;6.50;;
27728;SDS011;15126;42.186;24.340;2022-07-29T09:37:46;7.35;;;6.60;;
27728;SDS011;15126;42.186;24.340;2022-07-29T09:40:14;8.05;;;7.32;;
27728;SDS011;15126;42.186;24.340;2022-07-29T09:42:42;6.00;;;5.60;;
27728;SDS011;15126;42.186;24.340;2022-07-29T09:45:09;6.78;;;6.28;;
27728;SDS011;15126;42.186;24.340;2022-07-29T09:47:40;7.45;;;6.18;;
27728;SDS011;15126;42.186;24.340;2022-07-29T09:50:10;6.35;;;5.53;;
27728;SDS011;15126;42.186;24.340;2022-07-29T09:52:45;6.32;;;5.93;;
27728;SDS011;15126;42.186;24.340;2022-07-29T09:55:13;7.30;;;6.70;;
27728;SDS011;15126;42.186;24.340;2022-07-29T09:57:40;7.00;;;6.40;;
27728;SDS011;15126;42.186;24.340;2022-07-29T10:00:07;8.73;;;6.25;;
27728;SDS011;15126;42.186;24.340;2022-07-29T10:02:36;8.25;;;5.78;;
27728;SDS011;15126;42.186;24.340;2022-07-29T10:05:06;6.22;;;5.63;;
27728;SDS011;15126;42.186;24.340;2022-07-29T10:07:43;5.45;;;5.05;;
27728;SDS011;15126;42.186;24.340;2022-07-29T10:10:18;6.72;;;5.93;;
27728;SDS011;15126;42.186;24.340;2022-07-29T10:12:49;5.50;;;5.05;;
27728;SDS011;15126;42.186;24.340;2022-07-29T10:15:21;4.93;;;4.43;;
27728;SDS011;15126;42.186;24.340;2022-07-29T10:17:49;5.88;;;5.38;;
27728;SDS011;15126;42.186;24.340;2022-07-29T10:20:17;5.20;;;4.90;;
27728;SDS011;15126;42.186;24.340;2022-07-29T10:22:44;5.72;;;4.22;;
27728;SDS011;15126;42.186;24.340;2022-07-29T10:25:13;6.93;;;4.63;;
27728;SDS011;15126;42.186;24.340;2022-07-29T10:27:41;4.88;;;4.47;;
27728;SDS011;15126;42.186;24.340;2022-07-29T10:30:08;4.78;;;4.47;;
27728;SDS011;15126;42.186;24.340;2022-07-29T10:32:44;5.22;;;4.57;;
27728;SDS011;15126;42.186;24.340;2022-07-29T10:38:32;4.90;;;4.60;;
27728;SDS011;15126;42.186;24.340;2022-07-29T10:41:14;10.77;;;4.63;;
27728;SDS011;15126;42.186;24.340;2022-07-29T10:43:54;5.13;;;4.72;;
27728;SDS011;15126;42.186;24.340;2022-07-29T10:46:25;5.35;;;4.63;;
27728;SDS011;15126;42.186;24.340;2022-07-29T10:49:05;5.38;;;4.95;;
27728;SDS011;15126;42.186;24.340;2022-07-29T10:54:41;8.35;;;5.13;;
27728;SDS011;15126;42.186;24.340;2022-07-29T10:57:13;4.53;;;4.22;;
27728;SDS011;15126;42.186;24.340;2022-07-29T10:59:46;4.78;;;4.38;;
27728;SDS011;15126;42.186;24.340;2022-07-29T11:05:10;5.28;;;4.88;;
27728;SDS011;15126;42.186;24.340;2022-07-29T11:07:39;5.40;;;4.72;;
27728;SDS011;15126;42.186;24.340;2022-07-29T11:10:20;5.82;;;4.82;;
27728;SDS011;15126;42.186;24.340;2022-07-29T11:12:50;7.65;;;5.35;;
27728;SDS011;15126;42.186;24.340;2022-07-29T11:15:19;5.20;;;4.80;;
27728;SDS011;15126;42.186;24.340;2022-07-29T11:18:05;4.57;;;4.25;;
27728;SDS011;15126;42.186;24.340;2022-07-29T11:20:35;5.32;;;4.53;;
27728;SDS011;15126;42.186;24.340;2022-07-29T11:28:51;14.95;;;4.22;;
27728;SDS011;15126;42.186;24.340;2022-07-29T11:31:34;4.22;;;3.80;;
27728;SDS011;15126;42.186;24.340;2022-07-29T11:34:16;4.60;;;4.20;;
27728;SDS011;15126;42.186;24.340;2022-07-29T11:39:47;5.15;;;4.75;;
27728;SDS011;15126;42.186;24.340;2022-07-29T11:42:37;4.55;;;4.20;;
27728;SDS011;15126;42.186;24.340;2022-07-29T11:45:08;4.15;;;3.70;;
27728;SDS011;15126;42.186;24.340;2022-07-29T11:47:38;3.97;;;3.78;;
27728;SDS011;15126;42.186;24.340;2022-07-29T11:50:07;8.75;;;4.30;;
27728;SDS011;15126;42.186;24.340;2022-07-29T11:52:36;4.45;;;4.00;;
27728;SDS011;15126;42.186;24.340;2022-07-29T11:55:10;3.92;;;3.63;;
27728;SDS011;15126;42.186;24.340;2022-07-29T11:57:44;5.53;;;3.95;;
27728;SDS011;15126;42.186;24.340;2022-07-29T12:00:19;3.92;;;3.63;;
27728;SDS011;15126;42.186;24.340;2022-07-29T12:02:48;3.97;;;3.67;;
27728;SDS011;15126;42.186;24.340;2022-07-29T12:05:15;4.22;;;3.85;;
27728;SDS011;15126;42.186;24.340;2022-07-29T12:07:43;4.25;;;3.25;;
27728;SDS011;15126;42.186;24.340;2022-07-29T12:10:11;3.67;;;3.38;;
27728;SDS011;15126;42.186;24.340;2022-07-29T12:12:38;3.47;;;3.28;;
27728;SDS011;15126;42.186;24.340;2022-07-29T12:15:12;4.88;;;4.45;;
27728;SDS011;15126;42.186;24.340;2022-07-29T12:17:40;4.30;;;4.00;;
27728;SDS011;15126;42.186;24.340;2022-07-29T12:20:08;3.80;;;3.50;;
27728;SDS011;15126;42.186;24.340;2022-07-29T12:22:35;3.63;;;3.42;;
27728;SDS011;15126;42.186;24.340;2022-07-29T12:25:06;4.00;;;3.30;;
27728;SDS011;15126;42.186;24.340;2022-07-29T12:27:35;3.85;;;3.55;;
27728;SDS011;15126;42.186;24.340;2022-07-29T12:30:04;4.65;;;3.35;;
27728;SDS011;15126;42.186;24.340;2022-07-29T12:32:33;4.53;;;4.00;;
27728;SDS011;15126;42.186;24.340;2022-07-29T12:35:04;4.07;;;3.65;;
27728;SDS011;15126;42.186;24.340;2022-07-29T12:37:33;3.33;;;3.03;;
27728;SDS011;15126;42.186;24.340;2022-07-29T12:40:00;3.72;;;3.40;;
27728;SDS011;15126;42.186;24.340;2022-07-29T12:42:29;5.10;;;3.47;;
27728;SDS011;15126;42.186;24.340;2022-07-29T12:44:58;4.72;;;4.15;;
27728;SDS011;15126;42.186;24.340;2022-07-29T12:47:25;3.88;;;3.58;;
27728;SDS011;15126;42.186;24.340;2022-07-29T12:50:07;4.55;;;3.35;;
27728;SDS011;15126;42.186;24.340;2022-07-29T12:52:35;3.72;;;3.30;;
27728;SDS011;15126;42.186;24.340;2022-07-29T12:55:02;3.42;;;3.22;;
27728;SDS011;15126;42.186;24.340;2022-07-29T12:57:30;2.97;;;2.78;;
27728;SDS011;15126;42.186;24.340;2022-07-29T13:00:03;8.77;;;3.75;;
27728;SDS011;15126;42.186;24.340;2022-07-29T13:02:32;3.67;;;3.05;;
27728;SDS011;15126;42.186;24.340;2022-07-29T13:05:00;5.57;;;3.15;;
27728;SDS011;15126;42.186;24.340;2022-07-29T13:07:29;3.53;;;3.15;;
27728;SDS011;15126;42.186;24.340;2022-07-29T13:10:09;4.70;;;4.18;;
27728;SDS011;15126;42.186;24.340;2022-07-29T13:12:37;3.80;;;3.50;;
27728;SDS011;15126;42.186;24.340;2022-07-29T13:15:13;5.82;;;3.60;;
27728;SDS011;15126;42.186;24.340;2022-07-29T13:17:41;4.10;;;3.45;;
27728;SDS011;15126;42.186;24.340;2022-07-29T13:20:09;5.07;;;3.42;;
27728;SDS011;15126;42.186;24.340;2022-07-29T13:22:39;4.03;;;3.72;;
27728;SDS011;15126;42.186;24.340;2022-07-29T13:25:07;5.57;;;5.13;;
27728;SDS011;15126;42.186;24.340;2022-07-29T13:27:35;4.13;;;3.90;;
27728;SDS011;15126;42.186;24.340;2022-07-29T13:30:04;7.68;;;3.95;;
27728;SDS011;15126;42.186;24.340;2022-07-29T13:32:34;6.13;;;4.40;;
27728;SDS011;15126;42.186;24.340;2022-07-29T13:35:03;4.07;;;3.78;;
27728;SDS011;15126;42.186;24.340;2022-07-29T13:37:32;4.53;;;4.18;;
27728;SDS011;15126;42.186;24.340;2022-07-29T13:40:03;4.88;;;4.47;;
27728;SDS011;15126;42.186;24.340;2022-07-29T13:42:31;4.70;;;4.32;;
27728;SDS011;15126;42.186;24.340;2022-07-29T13:44:58;4.55;;;4.25;;
27728;SDS011;15126;42.186;24.340;2022-07-29T13:47:26;4.95;;;4.55;;
27728;SDS011;15126;42.186;24.340;2022-07-29T13:49:55;7.15;;;4.55;;
27728;SDS011;15126;42.186;24.340;2022-07-29T13:52:21;5.32;;;4.85;;
27728;SDS011;15126;42.186;24.340;2022-07-29T13:54:48;5.57;;;4.75;;
27728;SDS011;15126;42.186;24.340;2022-07-29T13:57:15;5.72;;;4.80;;
27728;SDS011;15126;42.186;24.340;2022-07-29T13:59:42;6.03;;;4.57;;
27728;SDS011;15126;42.186;24.340;2022-07-29T14:02:09;5.25;;;4.70;;
27728;SDS011;15126;42.186;24.340;2022-07-29T14:04:37;5.45;;;4.38;;
27728;SDS011;15126;42.186;24.340;2022-07-29T14:07:06;5.03;;;4.43;;
27728;SDS011;15126;42.186;24.340;2022-07-29T14:09:33;4.85;;;3.70;;
27728;SDS011;15126;42.186;24.340;2022-07-29T14:12:00;4.53;;;4.20;;
27728;SDS011;15126;42.186;24.340;2022-07-29T14:14:27;5.18;;;3.65;;
27728;SDS011;15126;42.186;24.340;2022-07-29T14:16:54;5.35;;;4.07;;
27728;SDS011;15126;42.186;24.340;2022-07-29T14:19:21;4.57;;;4.18;;
27728;SDS011;15126;42.186;24.340;2022-07-29T14:21:48;4.07;;;3.85;;
27728;SDS011;15126;42.186;24.340;2022-07-29T14:24:16;4.13;;;3.83;;
27728;SDS011;15126;42.186;24.340;2022-07-29T14:26:43;5.15;;;4.30;;
27728;SDS011;15126;42.186;24.340;2022-07-29T14:29:09;5.40;;;3.70;;
27728;SDS011;15126;42.186;24.340;2022-07-29T14:31:36;4.05;;;3.85;;
27728;SDS011;15126;42.186;24.340;2022-07-29T14:34:03;5.78;;;4.65;;
27728;SDS011;15126;42.186;24.340;2022-07-29T14:36:30;4.68;;;4.22;;
27728;SDS011;15126;42.186;24.340;2022-07-29T14:38:57;5.05;;;4.55;;
27728;SDS011;15126;42.186;24.340;2022-07-29T14:41:25;6.40;;;4.38;;
27728;SDS011;15126;42.186;24.340;2022-07-29T14:43:53;4.72;;;4.32;;
27728;SDS011;15126;42.186;24.340;2022-07-29T14:46:20;6.53;;;4.55;;
27728;SDS011;15126;42.186;24.340;2022-07-29T14:48:47;5.20;;;4.30;;
27728;SDS011;15126;42.186;24.340;2022-07-29T14:51:13;4.30;;;3.90;;
27728;SDS011;15126;42.186;24.340;2022-07-29T14:53:40;4.55;;;3.90;;
27728;SDS011;15126;42.186;24.340;2022-07-29T14:56:07;5.50;;;3.97;;
27728;SDS011;15126;42.186;24.340;2022-07-29T14:58:35;4.63;;;4.22;;
27728;SDS011;15126;42.186;24.340;2022-07-29T15:01:03;6.13;;;4.57;;